Latest Weather Observations for Mandurah

IDW60801

Issued at 5:04 am WST Sunday 24 September 2017 (issued every 30 minutes, with the page automatically refreshed every 10 minutes)

About weather observations | Map of weather stations | Latest weather observations for WA | Other Formats
Station Details ID: 009977 Name: MANDURAH Lat: -32.52 Lon: 115.71 Height: 3.0 m
Data from the previous 72 hours. | See also: Recent months at Mandurah
Date/Time
WST
Temp
°C
App
Temp
°C
Dew
Point
°C
Rel
Hum
%
Delta-T
°C
Wind Press
QNH
hPa
Press
MSL
hPa
Rain since
9am
mm
Dir  Spd
km/h
Gust
km/h
Spd
kts
Gust
kts
24/05:00am 10.8 9.2 8.7 87 1.0 ESE 7 9 4 5 1008.6 1008.6 3.6
24/04:30am 10.8 8.4 8.6 86 1.1 NNE 11 15 6 8 1008.7 1008.7 3.6
24/04:00am 11.0 9.6 8.9 87 1.0 ENE 6 9 3 5 1008.5 1008.5 3.6
24/03:30am 10.8 9.6 8.2 84 1.3 ESE 4 6 2 3 1008.7 1008.7 3.4
24/03:00am 10.9 9.3 8.0 82 1.4 ESE 6 7 3 4 1009.0 1009.0 3.2
24/02:30am 11.1 8.8 7.6 79 1.7 NE 9 13 5 7 1009.2 1009.2 2.4
24/02:00am 11.8 9.2 7.7 76 2.0 NE 11 13 6 7 1009.6 1009.6 0.2
24/01:30am 12.2 7.8 7.3 72 2.4 N 20 24 11 13 1009.7 1009.7 0.0
24/01:00am 12.8 10.3 6.6 66 3.0 NNE 9 15 5 8 1009.9 1009.9 0.0
24/12:30am 12.6 10.4 5.5 62 3.3 SE 6 7 3 4 1010.0 1010.0 0.0
24/12:00am 12.6 10.4 5.5 62 3.3 E 6 9 3 5 1010.3 1010.3 0.0
 
Date/Time
WST
Temp
°C
App
Temp
°C
Dew
Point
°C
Rel
Hum
%
Delta-T
°C
Wind Press
QNH
hPa
Press
MSL
hPa
Rain since
9am
mm
Dir  Spd
km/h
Gust
km/h
Spd
kts
Gust
kts
23/11:30pm 13.1 11.3 5.5 60 3.6 S 4 6 2 3 1010.6 1010.6 0.0
23/11:00pm 13.5 11.3 5.2 57 3.9 WSW 6 9 3 5 1010.9 1010.9 0.0
23/10:30pm 13.1 11.6 5.0 58 3.7 WSW 2 4 1 2 1011.2 1011.2 0.0
23/10:00pm 13.6 12.0 4.7 55 4.1 SW 2 6 1 3 1011.6 1011.6 0.0
23/09:30pm 13.8 11.3 4.7 54 4.2 SW 7 11 4 6 1011.9 1011.9 0.0
23/09:00pm 13.4 11.7 3.8 52 4.3 SW 2 6 1 3 1012.3 1012.3 0.0
23/08:30pm 13.7 11.2 3.5 50 4.6 SW 6 11 3 6 1012.6 1012.6 0.0
23/08:00pm 13.6 10.8 3.4 50 4.6 SW 7 13 4 7 1012.6 1012.6 0.0
23/07:30pm 13.9 10.4 3.7 50 4.6 WSW 11 19 6 10 1012.7 1012.7 0.0
23/07:00pm 14.1 10.4 4.4 52 4.5 WSW 13 19 7 10 1012.6 1012.6 0.0
23/06:30pm 14.2 10.5 4.5 52 4.5 WSW 13 19 7 10 1012.7 1012.7 0.0
23/06:00pm 14.5 11.2 4.5 51 4.6 WSW 11 17 6 9 1012.7 1012.7 0.0
23/05:30pm 14.9 10.8 4.6 50 4.8 WSW 15 22 8 12 1012.7 1012.7 0.0
23/05:00pm 15.2 10.8 4.9 50 4.8 WSW 17 24 9 13 1012.8 1012.8 0.0
23/04:30pm 15.2 11.6 4.9 50 4.8 WSW 13 20 7 11 1012.7 1012.7 0.0
23/04:00pm 15.5 11.4 4.3 47 5.2 SW 15 20 8 11 1012.5 1012.5 0.0
23/03:30pm 15.9 11.8 6.3 53 4.7 SW 17 24 9 13 1012.3 1012.3 0.0
23/03:00pm 16.6 11.8 2.6 39 6.3 WSW 17 24 9 13 1012.4 1012.4 0.0
23/02:30pm 16.7 12.2 4.4 44 5.8 WSW 17 24 9 13 1012.4 1012.4 0.0
23/02:00pm 16.8 12.4 4.8 45 5.7 WSW 17 24 9 13 1012.4 1012.4 0.0
23/01:30pm 16.8 12.2 5.4 47 5.5 WSW 19 26 10 14 1012.4 1012.4 0.0
23/01:00pm 16.6 12.1 5.9 49 5.2 WSW 19 32 10 17 1012.8 1012.8 0.0
23/12:30pm 15.6 11.8 5.8 52 4.7 WSW 15 24 8 13 1013.0 1013.0 0.0
23/12:00pm 14.6 9.4 5.7 55 4.2 SW 22 39 12 21 1013.3 1013.3 0.0
23/11:30am 16.1 11.5 6.5 53 4.7 SW 20 32 11 17 1013.2 1013.2 0.0
23/11:00am 16.2 10.7 6.1 51 4.9 SW 24 37 13 20 1013.3 1013.3 0.0
23/10:30am 15.9 11.0 6.9 55 4.4 SW 22 32 12 17 1013.2 1013.2 0.0
23/10:00am 15.6 10.5 5.8 52 4.7 SW 22 35 12 19 1013.3 1013.3 0.0
23/09:30am 15.2 10.1 6.2 55 4.3 SW 22 33 12 18 1013.0 1013.0 0.0
23/09:00am 15.3 10.4 7.1 58 4.0 SW 22 39 12 21 1012.9 1012.9 2.6
23/08:30am 15.0 9.5 6.0 55 4.3 SW 24 35 13 19 1012.6 1012.6 2.6
23/08:00am 13.9 9.5 7.2 64 3.3 SW 20 30 11 16 1012.3 1012.3 2.6
23/07:30am 13.9 9.1 7.2 64 3.3 SW 22 33 12 18 1011.8 1011.8 2.6
23/07:00am 13.3 8.6 7.7 69 2.8 SW 22 35 12 19 1011.4 1011.4 2.6
23/06:37am 12.8 8.3 8.5 75 2.1 SW 22 43 12 23 1011.5 1011.5 2.6
23/06:30am 13.2 10.4 8.5 73 2.3 SSW 13 20 7 11 1011.1 1011.1 2.6
23/06:00am 13.5 9.2 7.7 68 2.9 SW 20 41 11 22 1010.9 1010.9 2.6
23/05:30am 12.6 10.3 8.9 78 1.9 SSW 11 19 6 10 1010.8 1010.8 2.6
23/05:00am 12.3 6.6 8.2 76 2.0 WSW 28 50 15 27 1011.0 1011.0 2.4
23/04:58am 12.4 6.7 8.3 76 2.0 WSW 28 50 15 27 1011.0 1011.0 2.4
23/04:30am 13.6 9.9 7.8 68 2.9 WSW 17 28 9 15 1010.4 1010.4 2.2
23/04:00am 13.6 9.2 7.2 65 3.1 SW 20 32 11 17 1010.2 1010.2 2.2
23/03:30am 14.1 9.3 5.5 56 4.1 WSW 20 30 11 16 1010.1 1010.1 2.2
23/03:00am 13.7 9.2 6.3 61 3.5 SW 19 28 10 15 1010.1 1010.1 2.2
23/02:30am 14.1 9.0 6.2 59 3.8 SW 22 33 12 18 1010.5 1010.5 2.0
23/02:00am 14.2 9.3 5.3 55 4.2 WSW 20 37 11 20 1010.6 1010.6 2.0
23/01:30am 14.5 8.3 4.5 51 4.6 WSW 26 43 14 23 1010.7 1010.7 2.0
23/01:13am 14.3 8.0 5.7 56 4.1 WSW 28 48 15 26 1010.8 1010.8 2.0
23/01:00am 14.6 7.9 5.7 55 4.2 WSW 30 44 16 24 1010.7 1010.7 2.0
23/12:30am 14.2 8.9 6.8 61 3.6 WSW 24 39 13 21 1010.6 1010.6 2.0
23/12:00am 14.2 8.7 5.8 57 4.0 WSW 24 37 13 20 1010.6 1010.6 2.0
 
Date/Time
WST
Temp
°C
App
Temp
°C
Dew
Point
°C
Rel
Hum
%
Delta-T
°C
Wind Press
QNH
hPa
Press
MSL
hPa
Rain since
9am
mm
Dir  Spd
km/h
Gust
km/h
Spd
kts
Gust
kts
22/11:30pm 14.4 8.5 5.7 56 4.1 WSW 26 37 14 20 1010.6 1010.6 2.0
22/11:00pm 14.4 9.1 6.7 60 3.7 WSW 24 39 13 21 1010.6 1010.6 2.0
22/10:30pm 14.4 8.7 8.4 67 3.0 WSW 28 39 15 21 1010.2 1010.2 2.0
22/10:00pm 13.9 10.2 9.5 75 2.3 SW 19 35 10 19 1010.2 1010.2 2.0
22/09:30pm 14.8 10.5 9.2 69 2.9 WSW 22 37 12 20 1010.0 1010.0 2.0
22/09:00pm 14.6 9.5 9.2 70 2.8 WSW 26 44 14 24 1009.9 1009.9 2.0
22/08:40pm 14.8 9.3 9.2 69 2.9 WSW 28 48 15 26 1009.6 1009.6 2.0
22/08:30pm 14.8 9.7 9.2 69 2.9 SW 26 44 14 24 1009.5 1009.5 2.0
22/08:00pm 14.9 9.8 9.1 68 3.0 WSW 26 41 14 22 1009.1 1009.1 2.0
22/07:30pm 15.1 10.5 9.5 69 2.9 WSW 24 33 13 18 1008.5 1008.5 2.0
22/07:00pm 15.2 10.6 9.6 69 2.9 WSW 24 39 13 21 1008.1 1008.1 2.0
22/06:30pm 15.3 9.7 8.8 65 3.3 WSW 28 39 15 21 1007.6 1007.6 2.0
22/06:00pm 15.6 10.4 10.2 70 2.8 WSW 28 46 15 25 1007.1 1007.1 2.0
22/05:30pm 15.9 9.8 9.8 67 3.2 WSW 32 54 17 29 1006.7 1006.7 1.8
22/05:01pm 16.1 9.8 9.8 66 3.3 WSW 33 52 18 28 1006.2 1006.2 1.8
22/05:00pm 16.1 9.8 9.8 66 3.3 WSW 33 48 18 26 1006.1 1006.1 1.8
22/04:40pm 16.3 10.0 8.8 61 3.8 WSW 32 50 17 27 1005.6 1005.6 1.8
22/04:30pm 16.6 10.2 9.5 63 3.7 WSW 33 50 18 27 1005.5 1005.5 1.8
22/04:11pm 16.1 9.6 10.2 68 3.1 W 35 56 19 30 1005.1 1005.1 1.8
22/04:00pm 15.6 8.9 9.5 67 3.2 WSW 35 52 19 28 1004.9 1004.9 1.8
22/03:30pm 16.3 9.4 10.4 68 3.1 W 37 59 20 32 1004.2 1004.2 1.8
22/03:00pm 16.6 9.3 10.2 66 3.4 W 39 61 21 33 1003.5 1003.5 1.6
22/02:30pm 16.4 10.4 12.0 75 2.4 W 35 65 19 35 1002.9 1002.9 1.6
22/02:00pm 16.9 7.9 10.1 64 3.6 W 48 72 26 39 1001.8 1001.8 1.2
22/01:49pm 16.4 8.8 11.8 74 2.5 W 43 65 23 35 1001.7 1001.7 1.2
22/01:30pm 15.3 6.9 10.9 75 2.3 W 46 63 25 34 1001.7 1001.7 1.2
22/01:00pm 16.1 7.8 11.3 73 2.6 WNW 46 65 25 35 1001.4 1001.4 1.2
22/12:54pm 16.0 7.8 11.6 75 2.4 WNW 46 65 25 35 1001.4 1001.4 1.2
22/12:30pm 14.9 7.0 11.3 79 1.9 W 44 59 24 32 1001.5 1001.5 1.2
22/12:08pm 16.9 8.9 11.2 69 3.1 WNW 44 65 24 35 1001.1 1001.1 0.4
22/12:00pm 16.4 8.5 10.9 70 3.0 W 43 59 23 32 1001.3 1001.3 0.4
22/11:41am 15.8 7.6 11.8 77 2.2 WNW 46 65 25 35 1001.3 1001.3 0.4
22/11:30am 16.5 8.0 10.6 68 3.1 W 46 65 25 35 1001.1 1001.1 0.4
22/11:00am 17.1 9.9 10.7 66 3.4 W 39 59 21 32 1000.9 1000.9 0.4
22/10:30am 15.7 8.2 10.9 73 2.6 W 41 61 22 33 1000.9 1000.9 0.4
22/10:03am 16.6 8.7 10.9 69 3.0 W 43 63 23 34 1000.4 1000.4 0.2
22/10:00am 16.6 8.5 10.9 69 3.1 W 44 61 24 33 1000.4 1000.4 0.2
22/09:30am 15.6 9.1 11.6 77 2.2 W 37 57 20 31 1000.4 1000.4 0.0
22/09:29am 15.8 9.4 12.0 78 2.1 W 37 57 20 31 1000.4 1000.4 0.0
22/09:00am 14.1 8.8 13.0 93 0.6 W 33 48 18 26 1000.8 1000.8 15.6
22/08:30am 13.0 5.5 10.9 87 1.1 W 41 72 22 39 1001.2 1001.2 14.2
22/08:24am 15.4 8.8 13.6 89 1.0 WNW 41 67 22 36 1000.7 1000.7 13.0
22/08:00am 14.3 7.6 13.3 94 0.6 NW 41 50 22 27 1000.3 1000.3 12.8
22/07:36am 14.8 10.8 14.2 96 0.3 WNW 28 46 15 25 1000.6 1000.6 11.6
22/07:30am 14.5 10.7 13.7 95 0.4 W 26 43 14 23 1000.3 1000.3 10.2
22/07:00am 13.9 9.7 12.3 90 0.9 W 26 37 14 20 1000.8 1000.8 7.8
22/06:52am 13.8 8.7 11.8 88 1.1 W 30 46 16 25 1000.8 1000.8 7.2
22/06:30am 14.5 6.4 10.9 79 1.9 WNW 44 65 24 35 1000.9 1000.9 5.4
22/06:25am 16.4 8.7 12.0 75 2.4 WNW 44 65 24 35 1000.7 1000.7 4.6
22/06:00am 15.8 10.5 12.4 80 1.9 WNW 32 41 17 22 1000.4 1000.4 4.4
22/05:40am 16.6 9.9 12.2 75 2.4 WNW 39 65 21 35 1000.4 1000.4 4.4
22/05:30am 15.4 8.6 11.8 79 1.9 WNW 39 52 21 28 1000.6 1000.6 4.4
22/05:13am 15.4 8.7 12.2 81 1.7 W 39 57 21 31 1001.0 1001.0 4.2
22/05:00am 17.4 9.3 10.1 62 3.9 NW 43 56 23 30 1001.0 1001.0 3.8
22/04:30am 17.3 9.3 10.4 64 3.7 WNW 43 57 23 31 1001.2 1001.2 3.8
22/04:00am 17.3 10.5 11.8 70 3.0 WNW 39 50 21 27 1001.5 1001.5 3.8
22/03:30am 16.9 9.9 11.4 70 3.0 NW 39 48 21 26 1001.8 1001.8 3.8
22/03:00am 16.4 9.3 12.2 76 2.3 NW 41 54 22 29 1002.1 1002.1 3.8
22/02:41am 15.6 7.9 12.2 80 1.9 NW 44 74 24 40 1002.6 1002.6 3.8
22/02:35am 16.1 8.4 12.1 77 2.2 NW 44 74 24 40 1002.6 1002.6 3.8
22/02:33am 16.5 9.3 11.9 74 2.5 NW 41 74 22 40 1002.6 1002.6 3.6
22/02:31am 17.4 10.7 11.0 66 3.4 NW 37 59 20 32 1002.6 1002.6 3.6
22/02:30am 17.1 10.8 10.9 67 3.3 NW 35 44 19 24 1002.6 1002.6 3.6
22/02:00am 17.3 9.9 11.1 67 3.4 WNW 41 48 22 26 1002.9 1002.9 3.6
22/01:30am 17.0 9.2 11.1 68 3.2 WNW 43 52 23 28 1003.3 1003.3 3.6
22/01:00am 17.3 9.6 11.6 69 3.1 WNW 43 54 23 29 1003.7 1003.7 3.6
22/12:30am 16.9 10.4 11.8 72 2.8 WNW 37 46 20 25 1004.0 1004.0 3.6
22/12:00am 16.6 11.3 12.6 77 2.2 WNW 32 48 17 26 1004.3 1004.3 3.6
 
Date/Time
WST
Temp
°C
App
Temp
°C
Dew
Point
°C
Rel
Hum
%
Delta-T
°C
Wind Press
QNH
hPa
Press
MSL
hPa
Rain since
9am
mm
Dir  Spd
km/h
Gust
km/h
Spd
kts
Gust
kts
21/11:30pm 17.3 12.1 11.6 69 3.1 WNW 30 37 16 20 1004.4 1004.4 3.2
21/11:00pm 17.5 10.7 10.6 64 3.7 WNW 37 46 20 25 1004.9 1004.9 3.2
21/10:30pm 17.5 10.5 11.1 66 3.5 WNW 39 50 21 27 1005.1 1005.1 3.0
21/10:00pm 17.3 10.0 11.6 69 3.1 WNW 41 54 22 29 1005.3 1005.3 3.0
21/09:30pm 16.8 12.1 11.9 73 2.7 W 28 39 15 21 1005.7 1005.7 3.0
21/09:00pm 17.4 12.4 12.3 72 2.8 NW 30 43 16 23 1005.6 1005.6 3.0
21/08:30pm 17.7 11.5 11.3 66 3.5 NW 35 46 19 25 1005.8 1005.8 3.0
21/08:00pm 17.5 11.3 11.3 67 3.4 WNW 35 44 19 24 1005.7 1005.7 3.0
21/07:30pm 17.7 11.1 11.5 67 3.4 WNW 37 43 20 23 1005.7 1005.7 3.0
21/07:00pm 17.6 11.3 11.2 66 3.5 WNW 35 44 19 24 1005.2 1005.2 3.0
21/06:30pm 17.7 11.5 11.5 67 3.4 WNW 35 41 19 22 1005.1 1005.1 3.0
21/06:00pm 17.7 11.5 11.3 66 3.5 WNW 35 46 19 25 1005.1 1005.1 3.0
21/05:30pm 17.9 12.0 11.0 64 3.7 WNW 33 44 18 24 1005.1 1005.1 3.0
21/05:00pm 17.7 12.2 12.4 71 2.9 WNW 33 43 18 23 1005.0 1005.0 3.0
21/04:30pm 17.9 13.1 12.8 72 2.8 WNW 30 46 16 25 1004.8 1004.8 3.0
21/04:00pm 18.5 12.0 11.8 65 3.7 WNW 37 50 20 27 1004.4 1004.4 3.0
21/03:44pm 18.5 13.0 12.0 66 3.6 WNW 32 50 17 27 1004.5 1004.5 3.0
21/03:30pm 18.5 12.9 11.6 64 3.8 WNW 32 43 17 23 1004.4 1004.4 3.0
21/03:00pm 18.9 12.3 11.5 62 4.1 W 37 50 20 27 1004.3 1004.3 3.0
21/02:30pm 19.0 13.0 12.0 64 3.9 W 35 50 19 27 1004.2 1004.2 3.0
21/02:00pm 18.9 12.1 13.1 69 3.3 W 41 57 22 31 1003.9 1003.9 3.0
21/01:30pm 18.0 13.1 14.3 79 2.1 W 33 46 18 25 1003.8 1003.8 3.0
21/01:00pm 17.9 11.9 14.4 80 2.0 WNW 39 46 21 25 1003.6 1003.6 3.0
21/12:48pm 17.9 10.8 13.4 75 2.5 W 43 61 23 33 1003.8 1003.8 3.0
21/12:30pm 18.2 11.1 14.1 77 2.3 WNW 44 57 24 31 1003.7 1003.7 3.0
21/12:04pm 17.3 10.2 16.0 92 0.8 WNW 48 69 26 37 1003.3 1003.3 3.0
21/12:00pm 16.8 9.3 16.0 95 0.5 WNW 50 69 27 37 1003.2 1003.2 3.0
21/11:30am 18.6 11.7 18.4 99 0.1 NW 52 72 28 39 1002.8 1002.8 2.0
21/11:04am 18.1 11.5 18.1 100 0.0 NNW 50 69 27 37 1003.2 1003.2 1.8
21/11:00am 18.0 10.9 18.0 100 0.0 NW 52 69 28 37 1003.1 1003.1 1.8
21/10:30am 17.9 9.9 17.6 98 0.2 NW 56 70 30 38 1003.6 1003.6 1.6
21/10:04am 18.3 10.3 15.7 85 1.5 NNW 52 70 28 38 1003.4 1003.4 0.6
21/10:00am 18.6 11.0 15.8 84 1.7 NNW 50 65 27 35 1003.4 1003.4 0.4
21/09:30am 19.2 12.0 15.7 80 2.1 NNW 48 65 26 35 1003.5 1003.5 0.0
21/09:24am 19.1 12.7 15.8 81 2.0 NNW 44 65 24 35 1003.5 1003.5 0.0
21/09:00am 19.0 13.2 17.0 88 1.2 NNW 43 56 23 30 1004.0 1004.0 3.6
21/08:30am 18.3 12.3 17.0 92 0.8 NNW 44 61 24 33 1004.3 1004.3 3.6
21/08:02am 17.4 9.6 16.1 92 0.8 NW 52 70 28 38 1004.6 1004.6 3.6
21/08:00am 17.4 9.1 15.9 91 0.9 NW 54 70 29 38 1004.7 1004.7 3.6
21/07:30am 18.8 12.3 15.5 81 1.9 NNW 44 59 24 32 1004.7 1004.7 3.6
21/07:00am 18.9 12.4 15.6 81 2.0 NNW 44 57 24 31 1005.0 1005.0 3.6
21/06:30am 19.0 12.7 15.7 81 2.0 NNW 43 57 23 31 1005.2 1005.2 3.6
21/06:00am 18.3 12.9 17.0 92 0.8 NNW 41 56 22 30 1005.2 1005.2 3.6
21/05:30am 18.6 13.8 17.6 94 0.6 NNW 39 52 21 28 1005.4 1005.4 3.6

Other Formats:

Comma delimited format used in spreadsheet applications
http://www.bom.gov.au/fwo/IDW60801/IDW60801.94605.axf

JavaScript Object Notation format (JSON) in row-major order
http://www.bom.gov.au/fwo/IDW60801/IDW60801.94605.json